Time;durP1;ratioP1;P1;durP2;ratioP2;P2;SDS_P1;SDS_P2;PMS_P1;PMS_P2;Temp;Humidity;BMP_temperature;BMP_pressure;BME280_temperature;BME280_humidity;BME280_pressure;Samples;Min_cycle;Max_cycle;Signal;HPM_P1;HPM_P2
2023/07/09 00:00:51;;;;;;;13.40;5.25;;;25.60;83.80;;;;;;7399745;19;20426;-73
2023/07/09 00:03:19;;;;;;;9.57;4.22;;;25.60;83.90;;;;;;7400468;19;19922;-73
2023/07/09 00:05:48;;;;;;;10.75;4.00;;;25.60;83.50;;;;;;7401073;19;19911;-72
2023/07/09 00:08:28;;;;;;;14.40;4.45;;;25.60;83.70;;;;;;7366966;19;19919;-73
2023/07/09 00:10:55;;;;;;;11.23;4.47;;;25.60;84.00;;;;;;7402557;19;19923;-72
2023/07/09 00:13:22;;;;;;;10.90;4.72;;;25.60;84.10;;;;;;7402434;19;19932;-72
2023/07/09 00:15:49;;;;;;;9.32;4.10;;;25.50;83.70;;;;;;7401107;19;20358;-72
2023/07/09 00:18:16;;;;;;;12.50;4.57;;;25.50;84.00;;;;;;7399948;19;19928;-72
2023/07/09 00:20:43;;;;;;;14.32;4.40;;;25.40;84.40;;;;;;7400693;19;19919;-72
2023/07/09 00:23:14;;;;;;;11.05;3.97;;;25.40;84.40;;;;;;7400101;19;19959;-72
2023/07/09 00:25:44;;;;;;;11.73;4.22;;;25.40;84.40;;;;;;7399705;19;20000;-72
2023/07/09 00:28:27;;;;;;;14.10;4.60;;;25.40;84.40;;;;;;7399790;19;20300;-72
2023/07/09 00:30:53;;;;;;;13.98;4.55;;;25.30;83.80;;;;;;7401181;19;19914;-72
2023/07/09 00:33:19;;;;;;;11.35;4.50;;;25.30;83.30;;;;;;7398722;19;20335;-72
2023/07/09 00:35:48;;;;;;;12.38;3.83;;;25.30;83.20;;;;;;7401677;19;19923;-72
2023/07/09 00:38:19;;;;;;;10.63;4.15;;;25.30;82.90;;;;;;7398677;19;20631;-72
2023/07/09 00:41:19;;;;;;;10.02;4.20;;;25.30;83.20;;;;;;7370211;19;19978;-74
2023/07/09 00:43:47;;;;;;;10.15;4.47;;;25.30;83.10;;;;;;7396619;19;20195;-73
2023/07/09 00:46:30;;;;;;;10.35;4.85;;;25.20;83.00;;;;;;7400174;19;19915;-72
2023/07/09 00:49:09;;;;;;;10.68;5.18;;;25.20;82.80;;;;;;7399436;19;20244;-73
2023/07/09 00:51:41;;;;;;;9.55;4.15;;;25.20;82.70;;;;;;7399929;19;19922;-72
2023/07/09 00:54:22;;;;;;;13.45;3.92;;;25.20;82.30;;;;;;7399199;19;19915;-73
2023/07/09 00:56:51;;;;;;;13.07;4.30;;;25.20;82.10;;;;;;7401323;19;19911;-72
2023/07/09 00:59:20;;;;;;;8.20;4.00;;;25.20;81.80;;;;;;7397965;19;19927;-72
2023/07/09 01:02:06;;;;;;;10.00;4.00;;;25.20;81.80;;;;;;7365754;19;20394;-73
2023/07/09 01:04:32;;;;;;;11.10;3.70;;;25.20;81.40;;;;;;7398769;19;19946;-72
2023/07/09 01:06:58;;;;;;;13.77;3.85;;;25.20;81.30;;;;;;7399983;19;19921;-72
2023/07/09 01:09:25;;;;;;;10.02;3.92;;;25.20;81.20;;;;;;7401037;19;19923;-72
2023/07/09 01:11:51;;;;;;;9.95;3.80;;;25.10;81.10;;;;;;7400107;19;19914;-72
2023/07/09 01:14:21;;;;;;;10.48;3.83;;;25.20;80.80;;;;;;7400258;19;19930;-72
2023/07/09 01:16:57;;;;;;;10.13;4.07;;;25.20;80.50;;;;;;7398649;19;19914;-72
2023/07/09 01:19:28;;;;;;;11.02;4.15;;;25.20;80.40;;;;;;7397425;19;20397;-72
2023/07/09 01:21:58;;;;;;;9.23;3.95;;;25.10;80.40;;;;;;7398284;19;20382;-71
2023/07/09 01:24:49;;;;;;;10.23;3.45;;;25.10;80.60;;;;;;7398093;19;19926;-71
2023/07/09 01:27:16;;;;;;;14.50;4.68;;;25.10;80.20;;;;;;7397550;19;19932;-71
2023/07/09 01:29:48;;;;;;;10.65;4.00;;;25.00;79.90;;;;;;7401420;19;20007;-72
2023/07/09 01:32:19;;;;;;;10.32;3.90;;;25.10;80.00;;;;;;7399167;19;19910;-72
2023/07/09 01:34:53;;;;;;;12.63;4.82;;;25.00;80.70;;;;;;7398586;19;20167;-72
2023/07/09 01:37:23;;;;;;;9.32;3.95;;;25.00;81.30;;;;;;7398099;19;19922;-72
2023/07/09 01:39:49;;;;;;;8.57;4.03;;;25.00;81.20;;;;;;7400789;19;19921;-72
2023/07/09 01:42:17;;;;;;;10.65;4.18;;;24.90;81.30;;;;;;7396122;19;19914;-72
2023/07/09 01:44:45;;;;;;;11.18;4.20;;;24.90;81.30;;;;;;7399200;19;20903;-71
2023/07/09 01:47:12;;;;;;;10.10;4.00;;;24.90;82.50;;;;;;7364356;19;20012;-72
2023/07/09 01:49:39;;;;;;;13.32;5.00;;;24.90;82.30;;;;;;7400566;19;19923;-73
2023/07/09 01:52:10;;;;;;;11.73;4.88;;;25.00;83.20;;;;;;7395449;19;20495;-72
2023/07/09 01:54:39;;;;;;;14.45;4.75;;;24.90;83.60;;;;;;7385033;19;19914;-71
2023/07/09 01:57:22;;;;;;;11.32;4.20;;;24.90;83.60;;;;;;7392870;19;19926;-72
2023/07/09 01:59:55;;;;;;;12.23;3.83;;;24.90;83.60;;;;;;7400956;19;19910;-72
2023/07/09 02:02:22;;;;;;;12.40;4.75;;;24.90;83.60;;;;;;7392260;19;19919;-72
2023/07/09 02:04:50;;;;;;;12.23;4.18;;;24.90;83.60;;;;;;7398583;19;20352;-72
2023/07/09 02:07:17;;;;;;;13.75;4.85;;;24.80;83.60;;;;;;7396850;19;19911;-72
2023/07/09 02:09:44;;;;;;;13.13;4.10;;;24.80;84.60;;;;;;7396922;19;19914;-72
2023/07/09 02:12:10;;;;;;;;;;;24.70;84.20;;;;;;7399083;19;19915;-73
2023/07/09 02:14:37;;;;;;;12.93;4.75;;;24.70;84.30;;;;;;7394707;19;19914;-72
2023/07/09 02:17:03;;;;;;;11.60;5.00;;;24.70;84.70;;;;;;7395897;19;20275;-72
2023/07/09 02:19:30;;;;;;;9.90;3.88;;;24.60;84.80;;;;;;7395837;19;19995;-71
2023/07/09 02:21:56;;;;;;;9.85;4.07;;;24.60;84.70;;;;;;7398954;19;19915;-73
2023/07/09 02:24:24;;;;;;;11.43;4.28;;;24.50;84.70;;;;;;7397100;19;19937;-72
2023/07/09 02:26:54;;;;;;;9.63;3.78;;;24.50;84.70;;;;;;7396164;19;20571;-72
2023/07/09 02:29:21;;;;;;;12.35;4.63;;;24.50;84.50;;;;;;7391448;19;19914;-72
2023/07/09 02:31:50;;;;;;;11.98;5.32;;;24.50;84.30;;;;;;7400854;19;19915;-72
2023/07/09 02:34:16;;;;;;;9.02;3.85;;;24.50;84.60;;;;;;7402187;19;19950;-73
2023/07/09 02:36:42;;;;;;;12.35;3.95;;;24.40;84.50;;;;;;7401271;19;19954;-72
2023/07/09 02:39:13;;;;;;;12.40;4.40;;;24.50;84.70;;;;;;7397399;19;20012;-71
2023/07/09 02:41:41;;;;;;;9.27;4.35;;;24.40;84.40;;;;;;7401346;19;19938;-72
2023/07/09 02:44:08;;;;;;;11.27;4.07;;;24.40;84.70;;;;;;7396992;19;19930;-72
2023/07/09 02:46:34;;;;;;;9.82;3.97;;;24.40;83.70;;;;;;7402217;19;20368;-72
2023/07/09 02:49:00;;;;;;;;;;;24.30;83.40;;;;;;7405457;19;20445;-72
2023/07/09 02:51:26;;;;;;;12.80;4.30;;;24.30;83.20;;;;;;7400982;19;19962;-71
2023/07/09 02:53:58;;;;;;;10.35;3.97;;;24.30;82.80;;;;;;7398493;19;19942;-71
2023/07/09 02:56:24;;;;;;;9.80;4.20;;;24.30;82.30;;;;;;7402665;19;20308;-73
2023/07/09 02:58:51;;;;;;;11.18;4.00;;;24.30;82.10;;;;;;7398203;19;19918;-72
2023/07/09 03:01:19;;;;;;;8.18;3.70;;;24.30;82.10;;;;;;7400128;19;19926;-71
2023/07/09 03:03:45;;;;;;;9.68;3.80;;;24.20;82.00;;;;;;7401394;19;20685;-72
2023/07/09 03:06:11;;;;;;;8.63;3.67;;;24.20;82.00;;;;;;7401027;19;19978;-72
2023/07/09 03:08:37;;;;;;;9.77;3.50;;;24.10;81.80;;;;;;7402910;19;20342;-73
2023/07/09 03:11:14;;;;;;;8.00;3.70;;;24.20;82.00;;;;;;7396476;19;19922;-73
2023/07/09 03:13:40;;;;;;;8.93;3.67;;;24.20;81.90;;;;;;7398987;19;19935;-72
2023/07/09 03:16:05;;;;;;;11.25;4.60;;;24.10;82.00;;;;;;7398811;19;20248;-73
2023/07/09 03:18:31;;;;;;;8.38;4.28;;;24.10;82.00;;;;;;7401430;19;20391;-73
2023/07/09 03:20:58;;;;;;;8.05;3.60;;;24.00;82.00;;;;;;7395425;19;19927;-73
2023/07/09 03:23:23;;;;;;;;;;;24.10;82.20;;;;;;7396158;19;19935;-73
2023/07/09 03:25:49;;;;;;;7.70;3.38;;;24.00;82.20;;;;;;7394721;19;20033;-74
2023/07/09 03:28:15;;;;;;;8.70;3.33;;;24.10;82.70;;;;;;7397670;19;19922;-73
2023/07/09 03:30:43;;;;;;;12.43;3.92;;;24.10;82.70;;;;;;7399393;19;19914;-72
2023/07/09 03:33:10;;;;;;;8.90;3.55;;;24.10;82.80;;;;;;7398566;19;19957;-73
2023/07/09 03:35:38;;;;;;;12.27;3.90;;;24.00;82.90;;;;;;7401094;19;20354;-73
2023/07/09 03:38:05;;;;;;;10.02;4.07;;;24.10;83.00;;;;;;7397085;19;19915;-73
2023/07/09 03:40:31;;;;;;;11.13;3.88;;;24.10;82.90;;;;;;7397805;19;19914;-72
2023/07/09 03:42:57;;;;;;;7.35;3.47;;;24.10;82.80;;;;;;7395592;19;19915;-73
2023/07/09 03:45:23;;;;;;;12.73;3.90;;;24.10;82.60;;;;;;7395109;19;19993;-72
2023/07/09 03:47:49;;;;;;;9.23;3.80;;;24.00;82.60;;;;;;7394565;19;19919;-72
2023/07/09 03:50:15;;;;;;;10.15;3.88;;;24.00;82.60;;;;;;7396425;19;19918;-71
2023/07/09 03:52:41;;;;;;;9.18;3.85;;;24.00;82.50;;;;;;7396976;19;19918;-73
2023/07/09 03:55:07;;;;;;;11.40;4.20;;;24.00;82.70;;;;;;7392263;19;20441;-73
2023/07/09 03:57:34;;;;;;;10.63;3.95;;;24.00;82.90;;;;;;7399720;19;19910;-72
2023/07/09 04:00:00;;;;;;;11.65;3.90;;;23.90;82.80;;;;;;7400490;19;19925;-73
2023/07/09 04:02:26;;;;;;;13.02;3.75;;;23.90;82.50;;;;;;7400807;19;19986;-72
2023/07/09 04:04:52;;;;;;;11.75;3.55;;;23.90;83.00;;;;;;7401957;19;19918;-72
2023/07/09 04:07:18;;;;;;;10.27;3.67;;;23.90;83.70;;;;;;7402836;19;19935;-72
2023/07/09 04:09:44;;;;;;;9.65;4.18;;;23.80;84.70;;;;;;7398932;19;19923;-73
2023/07/09 04:12:10;;;;;;;10.82;4.15;;;23.90;84.30;;;;;;7399826;19;19922;-73
2023/07/09 04:14:36;;;;;;;11.05;4.20;;;23.90;84.60;;;;;;7400717;19;19931;-73
2023/07/09 04:17:02;;;;;;;11.88;5.00;;;23.90;84.20;;;;;;7402317;19;20274;-72
2023/07/09 04:19:28;;;;;;;10.63;4.60;;;23.90;84.40;;;;;;7400725;19;19942;-73
2023/07/09 04:21:54;;;;;;;12.57;4.30;;;23.80;85.70;;;;;;7401726;19;19914;-72
2023/07/09 04:24:21;;;;;;;10.25;4.10;;;23.80;85.80;;;;;;7400564;19;19921;-72
2023/07/09 04:26:47;;;;;;;8.82;3.55;;;23.90;85.00;;;;;;7402806;19;19919;-73
2023/07/09 04:29:14;;;;;;;8.48;4.13;;;23.90;84.50;;;;;;7400707;19;20664;-72
2023/07/09 04:31:40;;;;;;;8.93;4.32;;;23.80;84.20;;;;;;7401180;19;19919;-72
2023/07/09 04:34:07;;;;;;;12.23;4.18;;;23.80;84.50;;;;;;7399212;19;19922;-73
2023/07/09 04:36:33;;;;;;;12.90;5.10;;;23.90;84.60;;;;;;7400322;19;20231;-73
2023/07/09 04:38:59;;;;;;;10.27;4.20;;;23.90;85.30;;;;;;7400737;19;19923;-73
2023/07/09 04:41:25;;;;;;;13.45;4.72;;;23.90;85.50;;;;;;7401558;19;19925;-73
2023/07/09 04:43:50;;;;;;;11.68;5.43;;;23.90;86.00;;;;;;7390694;19;20244;-73
2023/07/09 04:46:16;;;;;;;14.25;5.13;;;24.00;86.00;;;;;;7397537;19;19962;-73
2023/07/09 04:48:42;;;;;;;9.63;4.72;;;24.00;86.60;;;;;;7395189;19;19918;-72
2023/07/09 04:51:08;;;;;;;13.52;5.13;;;24.10;87.60;;;;;;7396730;19;19930;-72
2023/07/09 04:53:34;;;;;;;12.98;5.32;;;24.10;88.20;;;;;;7396421;19;19943;-73
2023/07/09 04:56:02;;;;;;;15.02;5.55;;;24.10;88.80;;;;;;7402065;19;19923;-72
2023/07/09 04:58:29;;;;;;;14.02;5.57;;;24.10;89.70;;;;;;7400327;19;19918;-72
2023/07/09 05:00:58;;;;;;;15.50;5.38;;;24.20;90.30;;;;;;7395492;19;19910;-73
2023/07/09 05:03:24;;;;;;;12.60;5.15;;;24.20;90.90;;;;;;7393510;19;19922;-73
2023/07/09 05:05:50;;;;;;;13.55;5.97;;;24.20;91.00;;;;;;7393427;19;20356;-72
2023/07/09 05:08:16;;;;;;;10.98;5.57;;;24.30;92.00;;;;;;7395763;19;20000;-73
2023/07/09 05:10:43;;;;;;;13.73;5.68;;;24.30;93.00;;;;;;7398576;19;19923;-72
2023/07/09 05:13:09;;;;;;;13.07;5.53;;;24.30;93.90;;;;;;7399204;19;19925;-72
2023/07/09 05:15:35;;;;;;;15.18;6.97;;;24.30;95.30;;;;;;7402498;19;20304;-73
2023/07/09 05:18:01;;;;;;;14.55;5.85;;;24.30;95.60;;;;;;7399902;19;19919;-73
2023/07/09 05:20:27;;;;;;;13.73;5.25;;;24.40;95.60;;;;;;7400889;19;19915;-73
2023/07/09 05:22:53;;;;;;;17.65;6.40;;;24.40;94.20;;;;;;7401891;19;19926;-72
2023/07/09 05:25:18;;;;;;;12.90;5.43;;;24.40;93.80;;;;;;7400262;19;19915;-73
2023/07/09 05:27:44;;;;;;;13.40;5.50;;;24.50;93.80;;;;;;7402054;19;20016;-73
2023/07/09 05:30:10;;;;;;;12.80;5.78;;;24.50;94.60;;;;;;7382892;19;19966;-72
2023/07/09 05:32:37;;;;;;;15.13;6.05;;;24.50;95.40;;;;;;7397447;19;19906;-73
2023/07/09 05:35:03;;;;;;;14.10;5.68;;;24.60;95.60;;;;;;7399203;19;19976;-73
2023/07/09 05:37:29;;;;;;;16.00;6.72;;;24.60;95.30;;;;;;7402844;19;19915;-72
2023/07/09 05:39:55;;;;;;;17.95;6.63;;;24.60;96.50;;;;;;7398876;19;19915;-73
2023/07/09 05:42:21;;;;;;;16.58;6.53;;;24.70;96.80;;;;;;7400091;19;20367;-73
2023/07/09 05:44:47;;;;;;;15.82;6.45;;;24.60;95.90;;;;;;7400768;19;19946;-73
2023/07/09 05:47:13;;;;;;;12.57;5.30;;;24.50;94.50;;;;;;7397390;19;20654;-74
2023/07/09 05:49:39;;;;;;;16.08;5.95;;;24.40;93.90;;;;;;7396688;19;19953;-72
2023/07/09 05:52:05;;;;;;;19.00;7.15;;;24.50;94.40;;;;;;7398045;19;19918;-72
2023/07/09 05:54:31;;;;;;;12.90;5.68;;;24.60;95.00;;;;;;7398045;19;19929;-72
2023/07/09 05:56:57;;;;;;;18.20;6.40;;;24.50;95.50;;;;;;7397668;19;19922;-72
2023/07/09 05:59:23;;;;;;;16.85;6.45;;;24.60;95.90;;;;;;7398765;19;19967;-73
2023/07/09 06:01:49;;;;;;;14.07;6.25;;;24.60;95.80;;;;;;7402307;19;19922;-73
2023/07/09 06:04:14;;;;;;;13.80;6.15;;;24.60;96.00;;;;;;7395502;19;19911;-73
2023/07/09 06:06:41;;;;;;;14.38;6.38;;;24.70;95.60;;;;;;7399931;19;19915;-73
2023/07/09 06:09:10;;;;;;;12.30;6.63;;;24.80;95.30;;;;;;7398495;19;20270;-73
2023/07/09 06:11:36;;;;;;;14.63;6.88;;;24.90;95.50;;;;;;7398948;19;19974;-72
2023/07/09 06:14:02;;;;;;;17.95;7.57;;;24.90;95.50;;;;;;7399668;19;20369;-72
2023/07/09 06:16:28;;;;;;;18.02;8.00;;;24.90;95.80;;;;;;7397752;19;19931;-73
2023/07/09 06:18:54;;;;;;;15.57;7.40;;;24.90;96.10;;;;;;7397161;19;19930;-73
2023/07/09 06:21:19;;;;;;;18.15;7.07;;;24.90;96.20;;;;;;7395780;19;19922;-72
2023/07/09 06:23:46;;;;;;;23.20;7.25;;;25.00;96.00;;;;;;7398388;19;20006;-73
2023/07/09 06:26:12;;;;;;;17.08;6.88;;;25.00;95.90;;;;;;7395391;19;20364;-73
2023/07/09 06:28:38;;;;;;;14.65;6.65;;;25.20;95.70;;;;;;7396482;19;19930;-73
2023/07/09 06:31:04;;;;;;;14.25;6.20;;;25.30;95.40;;;;;;7396076;19;19910;-73
2023/07/09 06:33:30;;;;;;;17.88;6.68;;;25.40;95.10;;;;;;7396214;19;19915;-74
2023/07/09 06:35:59;;;;;;;17.85;6.53;;;25.50;94.60;;;;;;7365897;19;19918;-73
2023/07/09 06:38:25;;;;;;;14.65;6.47;;;25.60;94.10;;;;;;7396556;19;19919;-72
2023/07/09 06:40:51;;;;;;;14.68;7.38;;;25.80;93.70;;;;;;7397113;19;20294;-73
2023/07/09 06:43:17;;;;;;;19.33;7.25;;;25.80;93.40;;;;;;7394296;19;19922;-72
2023/07/09 06:45:55;;;;;;;17.63;6.40;;;25.90;92.30;;;;;;7399387;19;19915;-74
2023/07/09 06:48:22;;;;;;;11.85;5.53;;;26.00;90.90;;;;;;7395977;19;19939;-73
2023/07/09 06:50:48;;;;;;;14.07;5.32;;;26.10;90.10;;;;;;7395583;19;20344;-74
2023/07/09 06:53:14;;;;;;;12.55;5.43;;;26.20;89.00;;;;;;7395319;19;19915;-73
2023/07/09 06:55:40;;;;;;;13.70;5.10;;;26.30;88.50;;;;;;7398156;19;19915;-73
2023/07/09 06:58:06;;;;;;;13.27;5.55;;;26.40;88.10;;;;;;7396331;19;19922;-73
2023/07/09 07:00:35;;;;;;;13.80;5.50;;;26.50;86.90;;;;;;7398574;19;19914;-73
2023/07/09 07:03:01;;;;;;;13.55;4.97;;;26.60;86.10;;;;;;7397723;19;19922;-74
2023/07/09 07:05:27;;;;;;;16.15;5.50;;;26.70;85.20;;;;;;7395588;19;19919;-73
2023/07/09 07:07:53;;;;;;;13.73;5.43;;;26.70;84.60;;;;;;7397614;19;19938;-74
2023/07/09 07:10:19;;;;;;;13.68;5.60;;;26.80;84.60;;;;;;7394016;19;20056;-74
2023/07/09 07:12:47;;;;;;;13.32;5.65;;;26.80;84.40;;;;;;7398380;19;19935;-73
2023/07/09 07:15:15;;;;;;;14.80;5.82;;;26.80;84.40;;;;;;7393669;19;20767;-73
2023/07/09 07:17:41;;;;;;;12.63;5.47;;;26.80;84.60;;;;;;7404967;19;19935;-73
2023/07/09 07:20:09;;;;;;;13.38;5.97;;;26.80;84.00;;;;;;7401804;19;19914;-73
2023/07/09 07:22:36;;;;;;;15.90;5.32;;;26.80;83.50;;;;;;7401311;19;19907;-74
2023/07/09 07:25:02;;;;;;;14.00;6.28;;;26.80;83.30;;;;;;7401867;19;20597;-73
2023/07/09 07:27:28;;;;;;;13.32;6.05;;;26.90;83.50;;;;;;7401396;19;19935;-74
2023/07/09 07:29:54;;;;;;;13.43;5.22;;;27.00;83.50;;;;;;7403809;19;19914;-73
2023/07/09 07:32:20;;;;;;;17.17;5.90;;;27.00;84.50;;;;;;7400581;19;19915;-73
2023/07/09 07:34:49;;;;;;;15.85;5.32;;;27.00;84.70;;;;;;7401093;19;20332;-74
2023/07/09 07:37:19;;;;;;;11.05;5.13;;;27.10;83.70;;;;;;7402889;19;19922;-74
2023/07/09 07:39:44;;;;;;;12.55;4.68;;;27.30;82.40;;;;;;7404725;19;19931;-74
2023/07/09 07:42:11;;;;;;;9.15;4.55;;;27.50;79.90;;;;;;7402080;19;19918;-73
2023/07/09 07:44:36;;;;;;;10.27;4.55;;;27.60;78.50;;;;;;7402151;19;19918;-74
2023/07/09 07:47:03;;;;;;;14.77;4.80;;;27.70;77.40;;;;;;7399234;19;20255;-74
2023/07/09 07:49:28;;;;;;;;;;;27.90;76.70;;;;;;7405294;19;19935;-74
2023/07/09 07:51:55;;;;;;;11.88;4.88;;;28.00;75.40;;;;;;7402755;19;20335;-74
2023/07/09 07:54:21;;;;;;;12.02;4.50;;;28.10;75.20;;;;;;7400808;19;19929;-73
2023/07/09 07:56:47;;;;;;;10.30;4.22;;;28.20;74.50;;;;;;7402227;19;19926;-73
2023/07/09 07:59:14;;;;;;;11.55;4.93;;;28.30;72.70;;;;;;7400566;19;19915;-73
2023/07/09 08:01:40;;;;;;;9.27;3.80;;;28.40;71.30;;;;;;7401842;19;19942;-74
2023/07/09 08:04:06;;;;;;;11.65;3.78;;;28.50;69.00;;;;;;7401645;19;19953;-74
2023/07/09 08:06:32;;;;;;;10.48;4.18;;;28.50;66.20;;;;;;7401475;19;20272;-74
2023/07/09 08:08:58;;;;;;;11.23;4.43;;;28.60;66.10;;;;;;7402090;19;19994;-72
2023/07/09 08:11:25;;;;;;;11.93;3.78;;;28.80;65.30;;;;;;7399577;19;19929;-74
2023/07/09 08:13:51;;;;;;;10.13;3.55;;;28.90;64.70;;;;;;7400500;19;19939;-74
2023/07/09 08:16:17;;;;;;;13.35;4.25;;;29.00;64.10;;;;;;7367700;19;20037;-74
2023/07/09 08:18:43;;;;;;;11.13;4.03;;;29.10;64.10;;;;;;7399393;19;19911;-74
2023/07/09 08:21:09;;;;;;;10.82;4.25;;;29.20;64.30;;;;;;7400799;19;19922;-73
2023/07/09 08:23:35;;;;;;;12.93;4.60;;;29.30;63.70;;;;;;7401886;19;19958;-74
2023/07/09 08:26:02;;;;;;;;;;;29.40;64.80;;;;;;7402791;19;19914;-73
2023/07/09 08:28:29;;;;;;;15.05;6.00;;;29.40;65.00;;;;;;7398053;19;20558;-73
2023/07/09 08:30:55;;;;;;;11.02;4.60;;;29.50;65.00;;;;;;7400776;19;20339;-73
2023/07/09 08:33:22;;;;;;;12.60;6.10;;;29.60;64.90;;;;;;7400144;19;20261;-73
2023/07/09 08:35:52;;;;;;;10.85;4.63;;;29.70;64.50;;;;;;7398980;19;19935;-74
2023/07/09 08:38:18;;;;;;;15.23;4.95;;;29.70;64.00;;;;;;7399016;19;19929;-73
2023/07/09 08:41:01;;;;;;;12.30;4.50;;;29.70;63.60;;;;;;7400772;19;19944;-73
2023/07/09 08:43:30;;;;;;;12.40;4.80;;;29.80;63.60;;;;;;7401087;19;19929;-72
2023/07/09 08:46:23;;;;;;;12.45;4.82;;;30.00;62.90;;;;;;7402229;19;19911;-74
2023/07/09 08:48:54;;;;;;;12.90;5.22;;;30.10;62.10;;;;;;7398621;19;19921;-75
2023/07/09 08:51:32;;;;;;;13.77;4.80;;;29.90;62.20;;;;;;7394987;19;19907;-73
2023/07/09 08:53:59;;;;;;;9.70;4.35;;;29.70;62.10;;;;;;7393676;19;19915;-73
2023/07/09 08:56:28;;;;;;;10.93;4.78;;;29.90;62.30;;;;;;7393807;19;19934;-73
2023/07/09 08:58:58;;;;;;;14.10;4.80;;;30.10;61.80;;;;;;7402918;19;20315;-74
2023/07/09 09:01:29;;;;;;;10.25;5.22;;;30.30;61.60;;;;;;7395518;19;20036;-73
2023/07/09 09:04:00;;;;;;;13.50;4.97;;;30.30;64.30;;;;;;7399233;19;19922;-73
2023/07/09 09:06:28;;;;;;;11.85;5.25;;;30.10;64.40;;;;;;7396337;19;19930;-73
2023/07/09 09:09:22;;;;;;;11.25;4.60;;;30.00;65.40;;;;;;7398247;19;19914;-72
2023/07/09 09:12:09;;;;;;;13.60;4.97;;;30.00;64.80;;;;;;7390077;19;19930;-73
2023/07/09 09:14:39;;;;;;;12.15;4.55;;;30.10;64.10;;;;;;7396773;19;19943;-73
2023/07/09 09:17:13;;;;;;;11.65;4.85;;;30.10;63.60;;;;;;7389374;19;20265;-72
2023/07/09 09:19:46;;;;;;;14.93;6.25;;;30.20;63.80;;;;;;7397112;19;19926;-73
2023/07/09 09:22:16;;;;;;;13.48;5.05;;;30.40;62.40;;;;;;7392662;19;20312;-73
2023/07/09 09:25:00;;;;;;;10.48;4.47;;;30.30;62.30;;;;;;7390283;19;19930;-72
2023/07/09 09:27:26;;;;;;;9.07;4.03;;;30.40;61.50;;;;;;7398125;19;19914;-73
2023/07/09 09:29:52;;;;;;;11.13;4.88;;;30.60;60.90;;;;;;7399463;19;19918;-73
2023/07/09 09:32:28;;;;;;;10.45;4.55;;;30.80;60.50;;;;;;7400011;19;20884;-74
2023/07/09 09:34:54;;;;;;;11.20;4.57;;;30.90;59.40;;;;;;7400700;19;20349;-73
2023/07/09 09:37:29;;;;;;;13.80;4.90;;;30.50;60.10;;;;;;7400005;19;19918;-73
2023/07/09 09:39:56;;;;;;;17.80;4.65;;;30.70;59.50;;;;;;7401260;19;19911;-73
2023/07/09 09:42:24;;;;;;;14.00;4.57;;;30.80;59.50;;;;;;7400153;19;20406;-75
2023/07/09 09:44:53;;;;;;;13.32;4.30;;;30.90;59.30;;;;;;7399735;19;19926;-74
2023/07/09 09:47:18;;;;;;;11.48;4.85;;;31.20;59.10;;;;;;7397041;19;19926;-74
2023/07/09 09:49:44;;;;;;;13.00;4.15;;;31.40;58.50;;;;;;7399183;19;19914;-74
2023/07/09 09:52:15;;;;;;;10.07;3.67;;;31.40;57.70;;;;;;7398386;19;19918;-74
2023/07/09 09:54:52;;;;;;;9.23;4.68;;;31.10;57.70;;;;;;7401909;19;19942;-74
2023/07/09 09:57:21;;;;;;;11.95;4.22;;;31.30;57.50;;;;;;7397317;19;19925;-74
2023/07/09 09:59:47;;;;;;;12.43;4.25;;;31.30;56.80;;;;;;7400701;19;19935;-75
2023/07/09 10:02:25;;;;;;;9.63;4.25;;;31.40;56.60;;;;;;7395938;19;20576;-74
2023/07/09 10:04:52;;;;;;;12.75;3.58;;;31.50;56.10;;;;;;7401656;19;19929;-74
2023/07/09 10:07:32;;;;;;;11.40;4.03;;;31.70;55.50;;;;;;7397797;19;20240;-73
2023/07/09 10:09:58;;;;;;;12.00;4.45;;;31.80;55.10;;;;;;7401351;19;19974;-73
2023/07/09 10:12:35;;;;;;;;;;;31.90;54.80;;;;;;7403161;19;19915;-74
2023/07/09 10:15:23;;;;;;;11.70;4.07;;;32.20;55.20;;;;;;7401371;19;20638;-73
2023/07/09 10:18:26;;;;;;;14.05;4.03;;;32.20;55.10;;;;;;7397849;19;19930;-74
2023/07/09 10:21:05;;;;;;;13.07;3.75;;;32.20;54.90;;;;;;7399141;19;19918;-74
2023/07/09 10:23:53;;;;;;;10.50;4.15;;;31.90;54.70;;;;;;7398404;19;19915;-73
2023/07/09 10:26:41;;;;;;;11.93;3.92;;;32.00;54.50;;;;;;7397642;19;19926;-73
2023/07/09 10:29:25;;;;;;;9.20;3.58;;;32.20;53.70;;;;;;7395904;19;19939;-74
2023/07/09 10:31:56;;;;;;;;;;;32.30;53.90;;;;;;7400831;19;20298;-75
2023/07/09 10:34:38;;;;;;;11.68;4.25;;;32.40;53.00;;;;;;7396650;19;19922;-74
2023/07/09 10:37:25;;;;;;;10.60;3.45;;;32.20;52.30;;;;;;7398730;19;20618;-74
2023/07/09 10:40:02;;;;;;;9.38;3.78;;;32.50;52.30;;;;;;7398682;19;19922;-74
2023/07/09 10:42:35;;;;;;;11.15;4.45;;;32.40;53.40;;;;;;7399339;19;19911;-73
2023/07/09 10:45:16;;;;;;;10.35;4.43;;;32.20;53.40;;;;;;7400514;19;19943;-74
2023/07/09 10:47:47;;;;;;;9.40;4.07;;;32.00;54.30;;;;;;7396812;19;19922;-74
2023/07/09 10:50:22;;;;;;;9.88;3.50;;;32.20;53.90;;;;;;7395781;19;19953;-74
2023/07/09 10:52:53;;;;;;;9.18;4.05;;;32.40;53.10;;;;;;7375734;19;19911;-73
2023/07/09 10:55:39;;;;;;;8.88;3.80;;;32.60;53.20;;;;;;7405175;19;19918;-74
2023/07/09 10:58:10;;;;;;;11.80;3.90;;;32.70;53.30;;;;;;7382705;19;19926;-74
2023/07/09 11:00:39;;;;;;;9.35;4.07;;;32.90;53.60;;;;;;7401850;19;19941;-73
2023/07/09 11:03:29;;;;;;;11.25;5.28;;;33.10;53.20;;;;;;7381163;19;19911;-75
2023/07/09 11:05:54;;;;;;;;;;;33.10;53.50;;;;;;7406838;19;19915;-74
2023/07/09 11:08:30;;;;;;;9.73;3.78;;;33.40;51.90;;;;;;7402929;19;19942;-74
2023/07/09 11:11:02;;;;;;;9.18;4.10;;;33.40;50.70;;;;;;7404241;19;19919;-74
2023/07/09 11:13:34;;;;;;;;;;;33.50;51.60;;;;;;7406322;19;19919;-74
2023/07/09 11:16:02;;;;;;;15.95;4.03;;;33.40;51.30;;;;;;7403684;19;19927;-73
2023/07/09 11:18:33;;;;;;;14.88;4.32;;;33.50;51.00;;;;;;7403728;19;19922;-75
2023/07/09 11:21:15;;;;;;;9.15;5.15;;;33.60;51.60;;;;;;7404256;19;20240;-74
2023/07/09 11:23:50;;;;;;;13.63;5.80;;;33.50;54.30;;;;;;7402195;19;19919;-73
2023/07/09 11:26:25;;;;;;;11.05;4.75;;;33.20;55.30;;;;;;7403284;19;19914;-74
2023/07/09 11:28:54;;;;;;;11.45;5.38;;;33.40;54.80;;;;;;7401655;19;20394;-75
2023/07/09 11:31:34;;;;;;;11.50;5.57;;;33.60;54.10;;;;;;7403991;19;19918;-75
2023/07/09 11:34:20;;;;;;;9.23;4.82;;;33.80;53.70;;;;;;7402725;19;19914;-75
2023/07/09 11:37:11;;;;;;;10.77;4.82;;;33.70;56.10;;;;;;7401770;19;20397;-74
2023/07/09 11:39:37;;;;;;;12.07;4.50;;;33.70;54.90;;;;;;7404986;19;19915;-74
2023/07/09 11:42:02;;;;;;;;;;;33.50;55.70;;;;;;7406975;19;19921;-74
2023/07/09 11:44:33;;;;;;;10.23;4.78;;;33.30;56.10;;;;;;7405414;19;19925;-74
2023/07/09 11:47:24;;;;;;;11.07;4.28;;;33.60;55.70;;;;;;7401410;19;19990;-74
2023/07/09 11:50:16;;;;;;;15.40;5.75;;;33.70;55.50;;;;;;7402913;19;20341;-74
2023/07/09 11:52:48;;;;;;;13.02;5.13;;;33.50;56.30;;;;;;7403571;19;19943;-74
2023/07/09 11:55:38;;;;;;;8.75;4.97;;;33.60;56.70;;;;;;7402750;19;19914;-74
2023/07/09 11:58:05;;;;;;;11.80;5.82;;;33.50;55.70;;;;;;7400006;19;19934;-74
2023/07/09 12:00:38;;;;;;;12.05;5.55;;;33.60;56.10;;;;;;7401980;19;19986;-75
2023/07/09 12:03:07;;;;;;;11.43;5.10;;;33.90;56.10;;;;;;7401582;19;19914;-74
2023/07/09 12:05:33;;;;;;;11.10;4.68;;;33.90;54.30;;;;;;7401735;19;19931;-74
2023/07/09 12:08:01;;;;;;;12.93;4.72;;;33.90;53.50;;;;;;7401807;19;20343;-73
2023/07/09 12:10:34;;;;;;;11.32;4.75;;;33.90;54.00;;;;;;7400621;19;19923;-74
2023/07/09 12:13:03;;;;;;;10.20;4.38;;;34.50;53.50;;;;;;7399491;19;20241;-74
2023/07/09 12:15:31;;;;;;;13.02;5.13;;;34.80;52.40;;;;;;7398794;19;20363;-74
2023/07/09 12:18:04;;;;;;;11.55;4.88;;;35.10;52.30;;;;;;7400980;19;20336;-74
2023/07/09 12:20:33;;;;;;;11.32;4.65;;;35.60;51.10;;;;;;7400653;19;19948;-74
2023/07/09 12:23:00;;;;;;;10.80;4.90;;;34.40;50.60;;;;;;7400857;19;19922;-75
2023/07/09 12:25:30;;;;;;;10.10;4.25;;;34.50;50.80;;;;;;7403134;19;19938;-74
2023/07/09 12:27:58;;;;;;;9.18;4.95;;;34.60;50.80;;;;;;7351370;19;19921;-74
2023/07/09 12:30:24;;;;;;;10.40;5.18;;;34.90;50.00;;;;;;7402473;19;19929;-75
2023/07/09 12:32:53;;;;;;;8.60;4.10;;;34.90;48.90;;;;;;7399779;19;19931;-74
2023/07/09 12:35:20;;;;;;;12.23;4.72;;;34.70;49.10;;;;;;7399415;19;20259;-74
2023/07/09 12:37:48;;;;;;;10.75;4.80;;;34.80;49.60;;;;;;7402077;19;19919;-74
2023/07/09 12:40:23;;;;;;;8.45;4.47;;;35.40;48.50;;;;;;7399636;19;19947;-73
2023/07/09 12:42:49;;;;;;;8.60;4.38;;;35.80;47.80;;;;;;7400665;19;19927;-74
2023/07/09 12:45:18;;;;;;;11.10;4.43;;;36.30;47.60;;;;;;7400946;19;19935;-74
2023/07/09 12:47:48;;;;;;;10.18;4.00;;;36.10;48.00;;;;;;7379005;19;19926;-73
2023/07/09 12:50:32;;;;;;;9.98;4.70;;;36.00;48.90;;;;;;7396761;19;20221;-74
2023/07/09 12:53:17;;;;;;;9.85;4.32;;;36.10;49.70;;;;;;7389539;19;19935;-75